LZB7712 DTNH-LBSF
Flight info
| Callsign | LZB7712 |
|---|---|
| Flight time | 1h 59m |
| Altitude | 37000 |
| Route | SORAB1C SORAB UL874 OMENI DCT DOBIX DCT ROBIM Q723 LONDI DCT GOKEL DCT DOBAR DCT NASKO P127 VELBA T343 MOREK |
| Aircraft | A320/M-SDE3FGHIRWY/LB1 |
Departure
| Time | 2026-04-25 18:29 |
|---|---|
| Airport | Enfidha - Hammamet International Airport (DTNH) |
Arrival
| Time | 2026-04-25 20:28 |
|---|---|
| Airport | Sofia Airport (LBSF) |
| Time | Latitude | Longitude | Altitude | Speed | Heading |
|---|---|---|---|---|---|
| 2026-04-25 18:06 | 36.08138 | 10.43813 | 25 ft | 0 kts | 40° |
| 2026-04-25 18:19 | 36.08136 | 10.43811 | 25 ft | 2 kts | 40° |
| 2026-04-25 18:19 | 36.08123 | 10.43797 | 30 ft | 2 kts | 40° |
| 2026-04-25 18:19 | 36.08110 | 10.43783 | 31 ft | 2 kts | 40° |
| 2026-04-25 18:20 | 36.08097 | 10.43769 | 29 ft | 2 kts | 40° |
| 2026-04-25 18:20 | 36.08084 | 10.43755 | 30 ft | 2 kts | 40° |
| 2026-04-25 18:20 | 36.08071 | 10.43741 | 31 ft | 3 kts | 57° |
| 2026-04-25 18:20 | 36.08061 | 10.43723 | 30 ft | 3 kts | 72° |
| 2026-04-25 18:21 | 36.08058 | 10.43708 | 30 ft | 0 kts | 97° |
| 2026-04-25 18:22 | 36.08056 | 10.43723 | 30 ft | 5 kts | 100° |
| 2026-04-25 18:23 | 36.08023 | 10.43786 | 25 ft | 12 kts | 149° |
| 2026-04-25 18:23 | 36.07924 | 10.43794 | 25 ft | 17 kts | 180° |
| 2026-04-25 18:23 | 36.07804 | 10.43794 | 25 ft | 12 kts | 183° |
| 2026-04-25 18:23 | 36.07745 | 10.43719 | 25 ft | 14 kts | 270° |
| 2026-04-25 18:24 | 36.07746 | 10.43603 | 25 ft | 13 kts | 270° |
| 2026-04-25 18:24 | 36.07747 | 10.43487 | 25 ft | 14 kts | 270° |
| 2026-04-25 18:24 | 36.07746 | 10.43365 | 26 ft | 14 kts | 269° |
| 2026-04-25 18:24 | 36.07748 | 10.43234 | 26 ft | 16 kts | 271° |
| 2026-04-25 18:25 | 36.07749 | 10.43091 | 26 ft | 17 kts | 269° |
| 2026-04-25 18:25 | 36.07750 | 10.42938 | 27 ft | 18 kts | 268° |
| 2026-04-25 18:25 | 36.07750 | 10.42776 | 27 ft | 20 kts | 270° |
| 2026-04-25 18:25 | 36.07749 | 10.42600 | 27 ft | 21 kts | 271° |
| 2026-04-25 18:26 | 36.07750 | 10.42469 | 28 ft | 0 kts | 271° |
| 2026-04-25 18:26 | 36.07750 | 10.42447 | 28 ft | 6 kts | 271° |
| 2026-04-25 18:26 | 36.07752 | 10.42397 | 28 ft | 5 kts | 273° |
| 2026-04-25 18:27 | 36.07754 | 10.42353 | 28 ft | 7 kts | 272° |
| 2026-04-25 18:27 | 36.07752 | 10.42272 | 28 ft | 12 kts | 262° |
| 2026-04-25 18:27 | 36.07681 | 10.42205 | 28 ft | 16 kts | 179° |
| 2026-04-25 18:27 | 36.07580 | 10.42260 | 28 ft | 13 kts | 96° |
| 2026-04-25 18:28 | 36.07582 | 10.42527 | 27 ft | 67 kts | 90° |
| 2026-04-25 18:28 | 36.07579 | 10.43434 | 26 ft | 140 kts | 89° |
| 2026-04-25 18:28 | 36.07569 | 10.44749 | 555 ft | 155 kts | 90° |
| 2026-04-25 18:29 | 36.07461 | 10.47515 | 2037 ft | 166 kts | 96° |
| 2026-04-25 18:29 | 36.07402 | 10.49001 | 2444 ft | 181 kts | 95° |
| 2026-04-25 18:30 | 36.07215 | 10.54328 | 3506 ft | 234 kts | 92° |
| 2026-04-25 18:30 | 36.07150 | 10.56409 | 3967 ft | 250 kts | 92° |
| 2026-04-25 18:30 | 36.07083 | 10.58636 | 4438 ft | 268 kts | 91° |
| 2026-04-25 18:30 | 36.07011 | 10.60996 | 5001 ft | 281 kts | 91° |
| 2026-04-25 18:31 | 36.06938 | 10.63440 | 5789 ft | 285 kts | 91° |
| 2026-04-25 18:31 | 36.06865 | 10.65894 | 6645 ft | 286 kts | 90° |
| 2026-04-25 18:31 | 36.06791 | 10.68355 | 7451 ft | 288 kts | 90° |
| 2026-04-25 18:31 | 36.06714 | 10.70828 | 8278 ft | 289 kts | 90° |
| 2026-04-25 18:32 | 36.06637 | 10.73326 | 9097 ft | 291 kts | 90° |
| 2026-04-25 18:32 | 36.06560 | 10.75836 | 9913 ft | 292 kts | 91° |
| 2026-04-25 18:32 | 36.06483 | 10.78370 | 10537 ft | 300 kts | 91° |
| 2026-04-25 18:32 | 36.06402 | 10.81021 | 10887 ft | 317 kts | 91° |
| 2026-04-25 18:33 | 36.06343 | 10.82891 | 11124 ft | 328 kts | 91° |
| 2026-04-25 18:33 | 36.06248 | 10.85781 | 11478 ft | 343 kts | 91° |
| 2026-04-25 18:33 | 36.06150 | 10.88765 | 12051 ft | 350 kts | 92° |
| 2026-04-25 18:33 | 36.06051 | 10.91784 | 12716 ft | 354 kts | 92° |
| 2026-04-25 18:34 | 36.05952 | 10.94834 | 13380 ft | 357 kts | 92° |
| 2026-04-25 18:34 | 36.05851 | 10.97925 | 14015 ft | 362 kts | 92° |
| 2026-04-25 18:34 | 36.05746 | 11.01045 | 14577 ft | 366 kts | 92° |
| 2026-04-25 18:34 | 36.05641 | 11.04210 | 15115 ft | 370 kts | 92° |
| 2026-04-25 18:35 | 36.05534 | 11.07406 | 15656 ft | 375 kts | 92° |
| 2026-04-25 18:35 | 36.05425 | 11.10642 | 16193 ft | 379 kts | 91° |
| 2026-04-25 18:35 | 36.05313 | 11.13910 | 16745 ft | 382 kts | 92° |
| 2026-04-25 18:35 | 36.05197 | 11.17206 | 17294 ft | 386 kts | 92° |
| 2026-04-25 18:36 | 36.05080 | 11.20535 | 17847 ft | 389 kts | 91° |
| 2026-04-25 18:36 | 36.04963 | 11.23893 | 18396 ft | 393 kts | 91° |
| 2026-04-25 18:36 | 36.04844 | 11.27278 | 18875 ft | 396 kts | 91° |
| 2026-04-25 18:36 | 36.04720 | 11.30691 | 19355 ft | 399 kts | 91° |
| 2026-04-25 18:37 | 36.04596 | 11.34128 | 19835 ft | 402 kts | 91° |
| 2026-04-25 18:37 | 36.04475 | 11.37596 | 20315 ft | 405 kts | 91° |
| 2026-04-25 18:37 | 36.04357 | 11.41091 | 20793 ft | 408 kts | 91° |
| 2026-04-25 18:37 | 36.04346 | 11.44606 | 21270 ft | 410 kts | 83° |
| 2026-04-25 18:38 | 36.04838 | 11.48070 | 21738 ft | 410 kts | 72° |
| 2026-04-25 18:38 | 36.05853 | 11.51360 | 22205 ft | 410 kts | 60° |
| 2026-04-25 18:38 | 36.07358 | 11.54353 | 22658 ft | 410 kts | 49° |
| 2026-04-25 18:38 | 36.09239 | 11.56999 | 23102 ft | 411 kts | 45° |
| 2026-04-25 18:39 | 36.11181 | 11.59616 | 23536 ft | 414 kts | 45° |
| 2026-04-25 18:39 | 36.13138 | 11.62268 | 23928 ft | 417 kts | 45° |
| 2026-04-25 18:39 | 36.15099 | 11.64930 | 24284 ft | 419 kts | 45° |
| 2026-04-25 18:39 | 36.17067 | 11.67611 | 24640 ft | 422 kts | 45° |
| 2026-04-25 18:40 | 36.19046 | 11.70307 | 24983 ft | 424 kts | 45° |
| 2026-04-25 18:40 | 36.21036 | 11.73014 | 25321 ft | 426 kts | 45° |
| 2026-04-25 18:40 | 36.23037 | 11.75737 | 25653 ft | 428 kts | 45° |
| 2026-04-25 18:40 | 36.25046 | 11.78474 | 25973 ft | 430 kts | 45° |
| 2026-04-25 18:41 | 36.27063 | 11.81226 | 26293 ft | 432 kts | 45° |
| 2026-04-25 18:41 | 36.29090 | 11.83998 | 26608 ft | 435 kts | 45° |
| 2026-04-25 18:41 | 36.31124 | 11.86780 | 26917 ft | 437 kts | 45° |
| 2026-04-25 18:41 | 36.33170 | 11.89580 | 27220 ft | 439 kts | 45° |
| 2026-04-25 18:42 | 36.35224 | 11.92390 | 27523 ft | 441 kts | 44° |
| 2026-04-25 18:42 | 36.36619 | 11.94299 | 27718 ft | 442 kts | 45° |
| 2026-04-25 18:42 | 36.39389 | 11.98092 | 28107 ft | 445 kts | 45° |
| 2026-04-25 18:42 | 36.41467 | 12.00944 | 28394 ft | 447 kts | 44° |
| 2026-04-25 18:43 | 36.43557 | 12.03813 | 28674 ft | 449 kts | 44° |
| 2026-04-25 18:43 | 36.45652 | 12.06690 | 28942 ft | 450 kts | 44° |
| 2026-04-25 18:43 | 36.47758 | 12.09585 | 29211 ft | 452 kts | 44° |
| 2026-04-25 18:43 | 36.49835 | 12.12533 | 29461 ft | 456 kts | 49° |
| 2026-04-25 18:44 | 36.51634 | 12.15798 | 29717 ft | 460 kts | 54° |
| 2026-04-25 18:44 | 36.53368 | 12.19148 | 29947 ft | 462 kts | 54° |
| 2026-04-25 18:44 | 36.55111 | 12.22505 | 30180 ft | 463 kts | 54° |
| 2026-04-25 18:44 | 36.56864 | 12.25874 | 30380 ft | 465 kts | 54° |
| 2026-04-25 18:45 | 36.58625 | 12.29255 | 30573 ft | 466 kts | 54° |
| 2026-04-25 18:45 | 36.60385 | 12.32643 | 30759 ft | 467 kts | 54° |
| 2026-04-25 18:45 | 36.62153 | 12.36050 | 30941 ft | 468 kts | 54° |
| 2026-04-25 18:45 | 36.63917 | 12.39457 | 31188 ft | 468 kts | 54° |
| 2026-04-25 18:46 | 36.65674 | 12.42861 | 31453 ft | 467 kts | 54° |
| 2026-04-25 18:46 | 36.67426 | 12.46261 | 31707 ft | 466 kts | 54° |
| 2026-04-25 18:46 | 36.69173 | 12.49656 | 31961 ft | 465 kts | 54° |
| 2026-04-25 18:46 | 36.70917 | 12.53049 | 32225 ft | 465 kts | 54° |
| 2026-04-25 18:47 | 36.72663 | 12.56437 | 32463 ft | 464 kts | 54° |
| 2026-04-25 18:47 | 36.74407 | 12.59822 | 32711 ft | 464 kts | 54° |
| 2026-04-25 18:47 | 36.76148 | 12.63205 | 32958 ft | 463 kts | 54° |
| 2026-04-25 18:47 | 36.77890 | 12.66592 | 33203 ft | 462 kts | 54° |
| 2026-04-25 18:48 | 36.79628 | 12.69974 | 33445 ft | 462 kts | 54° |
| 2026-04-25 18:48 | 36.81359 | 12.73350 | 33688 ft | 461 kts | 54° |
| 2026-04-25 18:48 | 36.83086 | 12.76724 | 33932 ft | 461 kts | 54° |
| 2026-04-25 18:48 | 36.84813 | 12.80102 | 34113 ft | 460 kts | 54° |
| 2026-04-25 18:49 | 36.88201 | 12.86749 | 34145 ft | 451 kts | 54° |
| 2026-04-25 18:49 | 36.89875 | 12.90056 | 34444 ft | 448 kts | 54° |
| 2026-04-25 18:49 | 36.91533 | 12.93343 | 34692 ft | 448 kts | 55° |
| 2026-04-25 18:50 | 36.93214 | 12.96666 | 34452 ft | 456 kts | 55° |
| 2026-04-25 18:50 | 36.94921 | 13.00010 | 34225 ft | 456 kts | 54° |
| 2026-04-25 18:50 | 36.96937 | 13.03026 | 34113 ft | 450 kts | 37° |
| 2026-04-25 18:50 | 36.99540 | 13.05148 | 34145 ft | 445 kts | 20° |
| 2026-04-25 18:51 | 37.02465 | 13.06133 | 34138 ft | 432 kts | 5° |
| 2026-04-25 18:51 | 37.03475 | 13.06303 | 34140 ft | 433 kts | 5° |
| 2026-04-25 18:51 | 37.08327 | 13.07897 | 34143 ft | 437 kts | 17° |
| 2026-04-25 18:51 | 37.11210 | 13.09114 | 34142 ft | 437 kts | 17° |
| 2026-04-25 18:52 | 37.17005 | 13.11577 | 34145 ft | 437 kts | 17° |
| 2026-04-25 18:52 | 37.22769 | 13.14042 | 34141 ft | 438 kts | 17° |
| 2026-04-25 18:53 | 37.28544 | 13.16511 | 34153 ft | 438 kts | 17° |
| 2026-04-25 18:53 | 37.34016 | 13.19865 | 34148 ft | 441 kts | 35° |
| 2026-04-25 18:54 | 37.38333 | 13.25268 | 34152 ft | 444 kts | 52° |
| 2026-04-25 18:54 | 37.40206 | 13.28355 | 34154 ft | 444 kts | 51° |
| 2026-04-25 18:55 | 37.43960 | 13.34514 | 34158 ft | 443 kts | 51° |
| 2026-04-25 18:55 | 37.47716 | 13.40657 | 34169 ft | 442 kts | 51° |
| 2026-04-25 18:56 | 37.51459 | 13.46804 | 34159 ft | 441 kts | 52° |
| 2026-04-25 18:56 | 37.55181 | 13.52955 | 34180 ft | 441 kts | 52° |
| 2026-04-25 18:57 | 37.58891 | 13.59110 | 34165 ft | 440 kts | 52° |
| 2026-04-25 18:57 | 37.62592 | 13.65247 | 34169 ft | 439 kts | 52° |
| 2026-04-25 18:58 | 37.66288 | 13.71380 | 34166 ft | 438 kts | 52° |
| 2026-04-25 18:58 | 37.71817 | 13.80576 | 34165 ft | 438 kts | 52° |
| 2026-04-25 18:59 | 37.79169 | 13.92854 | 34163 ft | 437 kts | 52° |
| 2026-04-25 19:00 | 37.84675 | 14.02068 | 34160 ft | 437 kts | 52° |
| 2026-04-25 19:01 | 37.90170 | 14.11285 | 34153 ft | 437 kts | 52° |
| 2026-04-25 19:01 | 37.93824 | 14.17433 | 34153 ft | 437 kts | 52° |
| 2026-04-25 19:02 | 37.99304 | 14.26687 | 34146 ft | 437 kts | 52° |
| 2026-04-25 19:03 | 38.03568 | 14.33906 | 34141 ft | 438 kts | 52° |
| 2026-04-25 19:03 | 38.08424 | 14.42142 | 34140 ft | 437 kts | 52° |
| 2026-04-25 19:04 | 38.13294 | 14.50435 | 34138 ft | 438 kts | 53° |
| 2026-04-25 19:05 | 38.20578 | 14.62833 | 34147 ft | 437 kts | 53° |
| 2026-04-25 19:06 | 38.24204 | 14.69032 | 34157 ft | 436 kts | 53° |
| 2026-04-25 19:06 | 38.29605 | 14.78306 | 34148 ft | 436 kts | 53° |
| 2026-04-25 19:07 | 38.35016 | 14.87609 | 34144 ft | 436 kts | 53° |
| 2026-04-25 19:08 | 38.40415 | 14.96919 | 34145 ft | 435 kts | 53° |
| 2026-04-25 19:09 | 38.47020 | 15.08339 | 34137 ft | 435 kts | 53° |
| 2026-04-25 19:10 | 38.52999 | 15.18702 | 34133 ft | 435 kts | 54° |
| 2026-04-25 19:10 | 38.56576 | 15.24930 | 34145 ft | 434 kts | 54° |
| 2026-04-25 19:11 | 38.60144 | 15.31149 | 34147 ft | 434 kts | 54° |
| 2026-04-25 19:11 | 38.63710 | 15.37373 | 34153 ft | 434 kts | 54° |
| 2026-04-25 19:12 | 38.67271 | 15.43599 | 34145 ft | 433 kts | 54° |
| 2026-04-25 19:12 | 38.70826 | 15.49824 | 34141 ft | 433 kts | 54° |
| 2026-04-25 19:13 | 38.74375 | 15.56063 | 34146 ft | 433 kts | 54° |
| 2026-04-25 19:13 | 38.77923 | 15.62295 | 34149 ft | 433 kts | 54° |
| 2026-04-25 19:14 | 38.81450 | 15.68530 | 34151 ft | 432 kts | 54° |
| 2026-04-25 19:14 | 38.84972 | 15.74756 | 34149 ft | 431 kts | 54° |
| 2026-04-25 19:15 | 38.88491 | 15.80980 | 34140 ft | 431 kts | 54° |
| 2026-04-25 19:15 | 38.92029 | 15.87250 | 34138 ft | 430 kts | 54° |
| 2026-04-25 19:16 | 38.95532 | 15.93482 | 34139 ft | 430 kts | 55° |
| 2026-04-25 19:16 | 38.99026 | 15.99712 | 34130 ft | 429 kts | 54° |
| 2026-04-25 19:17 | 39.02518 | 16.05932 | 34127 ft | 429 kts | 55° |
| 2026-04-25 19:17 | 39.06002 | 16.12164 | 34135 ft | 428 kts | 55° |
| 2026-04-25 19:18 | 39.09471 | 16.18390 | 34133 ft | 428 kts | 55° |
| 2026-04-25 19:18 | 39.12948 | 16.24613 | 34135 ft | 427 kts | 55° |
| 2026-04-25 19:19 | 39.16411 | 16.30833 | 34134 ft | 427 kts | 55° |
| 2026-04-25 19:19 | 39.19893 | 16.37098 | 34137 ft | 426 kts | 55° |
| 2026-04-25 19:20 | 39.23337 | 16.43312 | 34137 ft | 426 kts | 55° |
| 2026-04-25 19:20 | 39.26774 | 16.49534 | 34129 ft | 425 kts | 56° |
| 2026-04-25 19:21 | 39.30207 | 16.55752 | 34119 ft | 425 kts | 55° |
| 2026-04-25 19:21 | 39.35347 | 16.65082 | 34105 ft | 424 kts | 56° |
| 2026-04-25 19:22 | 39.38769 | 16.71295 | 34101 ft | 424 kts | 56° |
| 2026-04-25 19:23 | 39.43882 | 16.80621 | 34091 ft | 424 kts | 56° |
| 2026-04-25 19:23 | 39.48968 | 16.89957 | 34075 ft | 423 kts | 56° |
| 2026-04-25 19:24 | 39.52364 | 16.96188 | 34069 ft | 423 kts | 56° |
| 2026-04-25 19:25 | 39.59158 | 17.08687 | 34064 ft | 422 kts | 56° |
| 2026-04-25 19:25 | 39.62536 | 17.14918 | 34060 ft | 422 kts | 56° |
| 2026-04-25 19:26 | 39.65914 | 17.21147 | 34058 ft | 422 kts | 56° |
| 2026-04-25 19:26 | 39.69277 | 17.27385 | 34060 ft | 421 kts | 56° |
| 2026-04-25 19:27 | 39.71497 | 17.31515 | 34058 ft | 421 kts | 56° |
| 2026-04-25 19:27 | 39.75989 | 17.39867 | 34055 ft | 421 kts | 56° |
| 2026-04-25 19:28 | 39.79345 | 17.46112 | 34050 ft | 421 kts | 56° |
| 2026-04-25 19:28 | 39.82692 | 17.52371 | 34053 ft | 421 kts | 56° |
| 2026-04-25 19:29 | 39.86033 | 17.58624 | 34052 ft | 421 kts | 56° |
| 2026-04-25 19:29 | 39.89369 | 17.64887 | 34055 ft | 421 kts | 56° |
| 2026-04-25 19:30 | 39.92705 | 17.71151 | 34054 ft | 421 kts | 56° |
| 2026-04-25 19:30 | 39.96062 | 17.77466 | 34051 ft | 421 kts | 56° |
| 2026-04-25 19:31 | 39.99396 | 17.83750 | 34050 ft | 421 kts | 56° |
| 2026-04-25 19:31 | 40.02157 | 17.88973 | 34051 ft | 421 kts | 56° |
| 2026-04-25 19:32 | 40.05484 | 17.95264 | 34051 ft | 421 kts | 56° |
| 2026-04-25 19:32 | 40.08246 | 18.00493 | 34045 ft | 421 kts | 56° |
| 2026-04-25 19:33 | 40.12123 | 18.07849 | 34051 ft | 421 kts | 56° |
| 2026-04-25 19:33 | 40.15433 | 18.14167 | 34053 ft | 421 kts | 56° |
| 2026-04-25 19:34 | 40.18736 | 18.20486 | 34052 ft | 421 kts | 56° |
| 2026-04-25 19:34 | 40.22033 | 18.26808 | 34046 ft | 421 kts | 56° |
| 2026-04-25 19:35 | 40.25340 | 18.33141 | 34047 ft | 421 kts | 56° |
| 2026-04-25 19:35 | 40.28644 | 18.39473 | 34044 ft | 421 kts | 56° |
| 2026-04-25 19:36 | 40.31944 | 18.45816 | 34042 ft | 421 kts | 56° |
| 2026-04-25 19:36 | 40.35243 | 18.52184 | 34039 ft | 422 kts | 56° |
| 2026-04-25 19:37 | 40.38539 | 18.58540 | 34044 ft | 422 kts | 56° |
| 2026-04-25 19:37 | 40.41831 | 18.64904 | 34047 ft | 422 kts | 56° |
| 2026-04-25 19:38 | 40.45112 | 18.71285 | 34050 ft | 421 kts | 56° |
| 2026-04-25 19:38 | 40.48390 | 18.77667 | 34051 ft | 421 kts | 55° |
| 2026-04-25 19:39 | 40.51674 | 18.84049 | 34054 ft | 421 kts | 55° |
| 2026-04-25 19:39 | 40.54959 | 18.90432 | 34052 ft | 421 kts | 55° |
| 2026-04-25 19:40 | 40.58230 | 18.96835 | 34056 ft | 421 kts | 56° |
| 2026-04-25 19:40 | 40.61486 | 19.03252 | 34053 ft | 422 kts | 56° |
| 2026-04-25 19:41 | 40.64716 | 19.09696 | 34051 ft | 421 kts | 56° |
| 2026-04-25 19:41 | 40.67421 | 19.15096 | 34052 ft | 421 kts | 56° |
| 2026-04-25 19:42 | 40.71176 | 19.22597 | 34050 ft | 421 kts | 56° |
| 2026-04-25 19:42 | 40.74398 | 19.29054 | 34040 ft | 422 kts | 56° |
| 2026-04-25 19:43 | 40.77626 | 19.35525 | 34044 ft | 422 kts | 56° |
| 2026-04-25 19:43 | 40.80844 | 19.42004 | 34049 ft | 422 kts | 56° |
| 2026-04-25 19:44 | 40.84062 | 19.48484 | 34042 ft | 422 kts | 56° |
| 2026-04-25 19:44 | 40.87272 | 19.54975 | 34035 ft | 422 kts | 56° |
| 2026-04-25 19:45 | 40.90506 | 19.61522 | 34033 ft | 422 kts | 56° |
| 2026-04-25 19:45 | 40.93720 | 19.68037 | 34036 ft | 423 kts | 56° |
| 2026-04-25 19:46 | 40.96927 | 19.74556 | 34044 ft | 423 kts | 56° |
| 2026-04-25 19:46 | 41.00123 | 19.81094 | 34044 ft | 423 kts | 56° |
| 2026-04-25 19:47 | 41.03328 | 19.87637 | 34043 ft | 423 kts | 56° |
| 2026-04-25 19:47 | 41.06532 | 19.94180 | 34051 ft | 423 kts | 56° |
| 2026-04-25 19:48 | 41.09725 | 20.00726 | 34050 ft | 423 kts | 56° |
| 2026-04-25 19:48 | 41.12914 | 20.07289 | 34053 ft | 423 kts | 56° |
| 2026-04-25 19:49 | 41.15048 | 20.11682 | 34058 ft | 423 kts | 56° |
| 2026-04-25 19:49 | 41.19286 | 20.20418 | 34050 ft | 423 kts | 56° |
| 2026-04-25 19:50 | 41.24059 | 20.30268 | 34045 ft | 423 kts | 56° |
| 2026-04-25 19:51 | 41.27229 | 20.36850 | 34049 ft | 423 kts | 56° |
| 2026-04-25 19:51 | 41.30390 | 20.43439 | 34044 ft | 423 kts | 56° |
| 2026-04-25 19:52 | 41.33415 | 20.50158 | 34041 ft | 424 kts | 64° |
| 2026-04-25 19:52 | 41.35526 | 20.57515 | 34044 ft | 426 kts | 68° |
| 2026-04-25 19:53 | 41.37589 | 20.64915 | 34053 ft | 426 kts | 68° |
| 2026-04-25 19:53 | 41.39649 | 20.72308 | 34052 ft | 426 kts | 68° |
| 2026-04-25 19:54 | 41.41700 | 20.79716 | 34047 ft | 426 kts | 68° |
| 2026-04-25 19:54 | 41.43743 | 20.87134 | 34042 ft | 427 kts | 68° |
| 2026-04-25 19:55 | 41.45449 | 20.93362 | 34044 ft | 427 kts | 68° |
| 2026-04-25 19:55 | 41.47826 | 21.01996 | 34044 ft | 426 kts | 68° |
| 2026-04-25 19:56 | 41.49853 | 21.09420 | 34038 ft | 425 kts | 68° |
| 2026-04-25 19:56 | 41.51876 | 21.16857 | 34035 ft | 427 kts | 68° |
| 2026-04-25 19:57 | 41.53906 | 21.24301 | 34036 ft | 426 kts | 68° |
| 2026-04-25 19:57 | 41.55922 | 21.31749 | 34033 ft | 427 kts | 68° |
| 2026-04-25 19:58 | 41.57946 | 21.39256 | 34037 ft | 426 kts | 68° |
| 2026-04-25 19:58 | 41.59941 | 21.46668 | 34032 ft | 426 kts | 68° |
| 2026-04-25 19:59 | 41.61947 | 21.54131 | 34025 ft | 426 kts | 68° |
| 2026-04-25 19:59 | 41.63948 | 21.61591 | 34025 ft | 427 kts | 68° |
| 2026-04-25 20:00 | 41.65946 | 21.69067 | 34026 ft | 427 kts | 68° |
| 2026-04-25 20:00 | 41.67933 | 21.76548 | 34020 ft | 427 kts | 68° |
| 2026-04-25 20:01 | 41.70908 | 21.87797 | 34019 ft | 427 kts | 68° |
| 2026-04-25 20:01 | 41.72893 | 21.95296 | 34021 ft | 427 kts | 68° |
| 2026-04-25 20:02 | 41.74869 | 22.02806 | 34016 ft | 427 kts | 68° |
| 2026-04-25 20:02 | 41.76841 | 22.10319 | 34019 ft | 427 kts | 68° |
| 2026-04-25 20:03 | 41.78808 | 22.17889 | 34030 ft | 427 kts | 68° |
| 2026-04-25 20:03 | 41.80730 | 22.25380 | 34019 ft | 427 kts | 68° |
| 2026-04-25 20:04 | 41.82654 | 22.32927 | 34023 ft | 427 kts | 68° |
| 2026-04-25 20:04 | 41.84274 | 22.39259 | 33797 ft | 427 kts | 68° |
| 2026-04-25 20:05 | 41.85233 | 22.43024 | 33529 ft | 425 kts | 68° |
| 2026-04-25 20:05 | 41.86185 | 22.46764 | 33259 ft | 423 kts | 69° |
| 2026-04-25 20:05 | 41.87132 | 22.50495 | 32996 ft | 422 kts | 69° |
| 2026-04-25 20:05 | 41.88075 | 22.54215 | 32730 ft | 420 kts | 69° |
| 2026-04-25 20:06 | 41.89014 | 22.57921 | 32468 ft | 418 kts | 69° |
| 2026-04-25 20:06 | 41.89949 | 22.61607 | 32214 ft | 417 kts | 69° |
| 2026-04-25 20:06 | 41.90870 | 22.65243 | 31971 ft | 415 kts | 69° |
| 2026-04-25 20:06 | 41.91798 | 22.68911 | 31707 ft | 413 kts | 69° |
| 2026-04-25 20:07 | 41.92717 | 22.72560 | 31460 ft | 412 kts | 69° |
| 2026-04-25 20:07 | 41.93527 | 22.75788 | 31236 ft | 410 kts | 69° |
| 2026-04-25 20:07 | 41.94362 | 22.79125 | 31011 ft | 409 kts | 69° |
| 2026-04-25 20:07 | 41.95270 | 22.82741 | 30763 ft | 407 kts | 69° |
| 2026-04-25 20:08 | 41.96343 | 22.86298 | 30514 ft | 403 kts | 61° |
| 2026-04-25 20:08 | 41.97808 | 22.89489 | 30271 ft | 400 kts | 51° |
| 2026-04-25 20:08 | 41.99598 | 22.92248 | 29926 ft | 394 kts | 43° |
| 2026-04-25 20:08 | 42.01564 | 22.94850 | 29430 ft | 389 kts | 43° |
| 2026-04-25 20:09 | 42.03478 | 22.97389 | 28956 ft | 384 kts | 43° |
| 2026-04-25 20:09 | 42.05366 | 22.99901 | 28495 ft | 380 kts | 44° |
| 2026-04-25 20:09 | 42.07232 | 23.02392 | 28042 ft | 376 kts | 44° |
| 2026-04-25 20:09 | 42.09076 | 23.04860 | 27612 ft | 371 kts | 44° |
| 2026-04-25 20:10 | 42.10286 | 23.06483 | 27330 ft | 369 kts | 44° |
| 2026-04-25 20:10 | 42.12699 | 23.09718 | 26777 ft | 363 kts | 44° |
| 2026-04-25 20:10 | 42.14481 | 23.12111 | 26356 ft | 359 kts | 44° |
| 2026-04-25 20:10 | 42.16239 | 23.14474 | 25946 ft | 355 kts | 44° |
| 2026-04-25 20:11 | 42.17977 | 23.16809 | 25532 ft | 351 kts | 43° |
| 2026-04-25 20:11 | 42.19700 | 23.19119 | 25135 ft | 348 kts | 43° |
| 2026-04-25 20:11 | 42.21411 | 23.21410 | 24724 ft | 345 kts | 43° |
| 2026-04-25 20:11 | 42.23104 | 23.23684 | 24299 ft | 343 kts | 43° |
| 2026-04-25 20:12 | 42.24783 | 23.25945 | 23888 ft | 340 kts | 43° |
| 2026-04-25 20:12 | 42.26455 | 23.28201 | 23436 ft | 339 kts | 43° |
| 2026-04-25 20:12 | 42.28115 | 23.30441 | 22988 ft | 336 kts | 43° |
| 2026-04-25 20:12 | 42.29235 | 23.31875 | 22705 ft | 334 kts | 38° |
| 2026-04-25 20:13 | 42.31712 | 23.34356 | 22135 ft | 330 kts | 34° |
| 2026-04-25 20:13 | 42.33463 | 23.36050 | 21743 ft | 329 kts | 34° |
| 2026-04-25 20:13 | 42.35316 | 23.37847 | 21324 ft | 327 kts | 34° |
| 2026-04-25 20:13 | 42.37159 | 23.39637 | 20910 ft | 325 kts | 34° |
| 2026-04-25 20:14 | 42.38991 | 23.41417 | 20508 ft | 324 kts | 34° |
| 2026-04-25 20:14 | 42.40815 | 23.43191 | 20091 ft | 322 kts | 34° |
| 2026-04-25 20:14 | 42.42632 | 23.44963 | 19680 ft | 321 kts | 34° |
| 2026-04-25 20:14 | 42.44474 | 23.46661 | 19277 ft | 319 kts | 28° |
| 2026-04-25 20:15 | 42.46488 | 23.47904 | 18859 ft | 318 kts | 17° |
| 2026-04-25 20:15 | 42.48632 | 23.48773 | 18427 ft | 318 kts | 15° |
| 2026-04-25 20:15 | 42.50758 | 23.49629 | 17969 ft | 318 kts | 15° |
| 2026-04-25 20:15 | 42.52870 | 23.50485 | 17544 ft | 316 kts | 15° |
| 2026-04-25 20:16 | 42.54977 | 23.51340 | 17122 ft | 315 kts | 15° |
| 2026-04-25 20:16 | 42.56996 | 23.52485 | 16716 ft | 316 kts | 31° |
| 2026-04-25 20:16 | 42.58651 | 23.54453 | 16253 ft | 319 kts | 50° |
| 2026-04-25 20:16 | 42.59727 | 23.57075 | 15978 ft | 317 kts | 70° |
| 2026-04-25 20:17 | 42.60124 | 23.59965 | 15859 ft | 309 kts | 88° |
| 2026-04-25 20:17 | 42.59994 | 23.62843 | 15715 ft | 301 kts | 93° |
| 2026-04-25 20:17 | 42.59820 | 23.65642 | 15533 ft | 294 kts | 93° |
| 2026-04-25 20:17 | 42.59645 | 23.68424 | 15098 ft | 298 kts | 93° |
| 2026-04-25 20:18 | 42.59468 | 23.71235 | 14699 ft | 300 kts | 93° |
| 2026-04-25 20:18 | 42.59294 | 23.74066 | 14290 ft | 303 kts | 92° |
| 2026-04-25 20:18 | 42.59120 | 23.76925 | 13881 ft | 305 kts | 92° |
| 2026-04-25 20:18 | 42.58940 | 23.79800 | 13436 ft | 307 kts | 93° |
| 2026-04-25 20:19 | 42.58755 | 23.82682 | 13021 ft | 307 kts | 93° |
| 2026-04-25 20:19 | 42.58568 | 23.85566 | 12608 ft | 307 kts | 93° |
| 2026-04-25 20:19 | 42.58381 | 23.88448 | 12182 ft | 307 kts | 93° |
| 2026-04-25 20:19 | 42.58197 | 23.91343 | 11709 ft | 307 kts | 92° |
| 2026-04-25 20:20 | 42.58474 | 23.94119 | 11257 ft | 291 kts | 63° |
| 2026-04-25 20:20 | 42.59700 | 23.96153 | 10824 ft | 274 kts | 29° |
| 2026-04-25 20:20 | 42.61449 | 23.96889 | 10401 ft | 259 kts | 1° |
| 2026-04-25 20:20 | 42.63220 | 23.97018 | 9997 ft | 251 kts | 358° |
| 2026-04-25 20:21 | 42.64859 | 23.96542 | 9579 ft | 237 kts | 328° |
| 2026-04-25 20:21 | 42.66013 | 23.95037 | 9206 ft | 231 kts | 295° |
| 2026-04-25 20:21 | 42.66441 | 23.92944 | 8866 ft | 231 kts | 277° |
| 2026-04-25 20:21 | 42.66591 | 23.90768 | 8533 ft | 232 kts | 275° |
| 2026-04-25 20:22 | 42.66717 | 23.88591 | 8188 ft | 231 kts | 275° |
| 2026-04-25 20:22 | 42.66761 | 23.87885 | 8080 ft | 231 kts | 275° |
| 2026-04-25 20:22 | 42.66993 | 23.84275 | 7574 ft | 227 kts | 275° |
| 2026-04-25 20:22 | 42.67130 | 23.82143 | 7271 ft | 226 kts | 275° |
| 2026-04-25 20:23 | 42.67266 | 23.80019 | 6973 ft | 225 kts | 275° |
| 2026-04-25 20:23 | 42.67402 | 23.77896 | 6638 ft | 226 kts | 275° |
| 2026-04-25 20:23 | 42.67536 | 23.75776 | 6336 ft | 224 kts | 275° |
| 2026-04-25 20:23 | 42.67670 | 23.73672 | 6032 ft | 223 kts | 275° |
| 2026-04-25 20:24 | 42.67802 | 23.71577 | 5734 ft | 222 kts | 275° |
| 2026-04-25 20:24 | 42.67934 | 23.69487 | 5441 ft | 222 kts | 276° |
| 2026-04-25 20:24 | 42.68065 | 23.67399 | 5146 ft | 222 kts | 276° |
| 2026-04-25 20:24 | 42.68196 | 23.65307 | 4868 ft | 221 kts | 276° |
| 2026-04-25 20:25 | 42.68284 | 23.63900 | 4653 ft | 222 kts | 276° |
| 2026-04-25 20:25 | 42.68456 | 23.61133 | 4265 ft | 222 kts | 275° |
| 2026-04-25 20:25 | 42.68584 | 23.59067 | 3966 ft | 215 kts | 275° |
| 2026-04-25 20:25 | 42.68706 | 23.57104 | 3705 ft | 201 kts | 275° |
| 2026-04-25 20:26 | 42.68819 | 23.55272 | 3431 ft | 187 kts | 275° |
| 2026-04-25 20:26 | 42.68924 | 23.53563 | 3184 ft | 171 kts | 275° |
| 2026-04-25 20:26 | 42.69018 | 23.52029 | 2958 ft | 154 kts | 275° |
| 2026-04-25 20:26 | 42.69103 | 23.50640 | 2762 ft | 144 kts | 275° |
| 2026-04-25 20:27 | 42.69187 | 23.49282 | 2570 ft | 144 kts | 275° |
| 2026-04-25 20:27 | 42.69273 | 23.47924 | 2367 ft | 145 kts | 274° |
| 2026-04-25 20:27 | 42.69355 | 23.46551 | 2167 ft | 147 kts | 274° |
| 2026-04-25 20:27 | 42.69438 | 23.45163 | 1976 ft | 148 kts | 274° |
| 2026-04-25 20:28 | 42.69525 | 23.43766 | 1788 ft | 148 kts | 275° |
| 2026-04-25 20:28 | 42.69605 | 23.42441 | 1752 ft | 119 kts | 276° |
| 2026-04-25 20:28 | 42.69657 | 23.41555 | 1755 ft | 63 kts | 274° |
| 2026-04-25 20:28 | 42.69674 | 23.41289 | 1753 ft | 0 kts | 276° |
| 2026-04-25 20:29 | 42.69678 | 23.41242 | 1752 ft | 10 kts | 276° |
| 2026-04-25 20:29 | 42.69686 | 23.41104 | 1754 ft | 19 kts | 270° |
| 2026-04-25 20:29 | 42.69664 | 23.40899 | 1749 ft | 24 kts | 252° |
| 2026-04-25 20:29 | 42.69596 | 23.40683 | 1751 ft | 25 kts | 243° |
| 2026-04-25 20:30 | 42.69496 | 23.40491 | 1752 ft | 24 kts | 197° |
| 2026-04-25 20:30 | 42.69330 | 23.40428 | 1753 ft | 26 kts | 196° |
| 2026-04-25 20:30 | 42.69183 | 23.40372 | 1753 ft | 16 kts | 180° |
| 2026-04-25 20:30 | 42.69124 | 23.40481 | 1751 ft | 16 kts | 106° |
| 2026-04-25 20:31 | 42.69090 | 23.40632 | 1745 ft | 18 kts | 107° |
| 2026-04-25 20:31 | 42.69058 | 23.40798 | 1751 ft | 18 kts | 83° |
| 2026-04-25 20:31 | 42.69091 | 23.40958 | 1745 ft | 15 kts | 94° |
| 2026-04-25 20:31 | 42.69032 | 23.41004 | 1743 ft | 8 kts | 162° |
| 2026-04-25 20:32 | 42.68998 | 23.41019 | 1750 ft | 0 kts | 162° |